createdAt,value
2018-01-03T00:01:20.186Z,8.58
2018-01-03T00:03:48.945Z,8.48
2018-01-03T00:06:18.241Z,8.67
2018-01-03T00:08:46.783Z,8.76
2018-01-03T00:11:15.731Z,8.67
2018-01-03T00:13:43.994Z,8.68
2018-01-03T00:16:12.286Z,8.69
2018-01-03T00:18:40.661Z,8.74
2018-01-03T00:21:08.946Z,8.72
2018-01-03T00:23:37.203Z,8.78
2018-01-03T00:26:05.442Z,8.80
2018-01-03T00:28:33.744Z,8.94
2018-01-03T00:31:01.979Z,8.90
2018-01-03T00:33:30.251Z,8.86
2018-01-03T00:35:58.529Z,8.98
2018-01-03T00:38:26.810Z,8.86
2018-01-03T00:40:55.084Z,8.84
2018-01-03T00:43:23.352Z,8.92
2018-01-03T00:45:51.607Z,8.85
2018-01-03T00:48:19.918Z,8.88
2018-01-03T00:50:48.205Z,8.93
2018-01-03T00:53:16.478Z,9.00
2018-01-03T00:55:44.751Z,9.01
2018-01-03T00:58:13.081Z,9.04
2018-01-03T01:00:42.118Z,8.94
2018-01-03T01:03:10.395Z,9.02
2018-01-03T01:05:38.687Z,9.02
2018-01-03T01:08:06.991Z,9.03
2018-01-03T01:10:36.220Z,9.00
2018-01-03T01:13:06.172Z,8.99
2018-01-03T01:15:34.520Z,9.08
2018-01-03T01:18:02.819Z,8.94
2018-01-03T01:20:31.104Z,9.11
2018-01-03T01:22:59.423Z,9.20
2018-01-03T01:25:27.671Z,9.25
2018-01-03T01:27:55.972Z,9.22
2018-01-03T01:30:24.290Z,9.18
2018-01-03T01:32:52.585Z,9.22
2018-01-03T01:35:21.455Z,9.20
2018-01-03T01:37:49.733Z,9.24
2018-01-03T01:40:17.987Z,9.38
2018-01-03T01:42:46.463Z,9.26
2018-01-03T01:45:14.774Z,9.42
2018-01-03T01:47:43.039Z,9.40
2018-01-03T01:50:11.330Z,9.50
2018-01-03T01:52:40.398Z,9.56
2018-01-03T01:55:08.698Z,9.62
2018-01-03T01:57:36.947Z,9.61
2018-01-03T02:00:05.268Z,9.68
2018-01-03T02:02:33.535Z,9.63
2018-01-03T02:05:01.820Z,9.64
2018-01-03T02:07:30.083Z,9.66
2018-01-03T02:09:58.359Z,9.70
2018-01-03T02:12:26.638Z,9.74
2018-01-03T02:14:54.938Z,9.84
2018-01-03T02:17:23.215Z,9.87
2018-01-03T02:19:51.470Z,9.89
2018-01-03T02:22:19.754Z,9.93
2018-01-03T02:24:48.053Z,9.98
2018-01-03T02:27:16.640Z,10.03
2018-01-03T02:29:44.888Z,10.09
2018-01-03T02:32:13.371Z,10.05
2018-01-03T02:34:41.681Z,10.13
2018-01-03T02:37:09.946Z,10.12
2018-01-03T02:39:38.244Z,10.14
2018-01-03T02:42:06.535Z,10.19
2018-01-03T02:44:34.873Z,10.18
2018-01-03T02:47:03.163Z,10.28
2018-01-03T02:49:31.464Z,10.32
2018-01-03T02:51:59.728Z,10.39
2018-01-03T02:54:28.031Z,10.34
2018-01-03T02:56:56.332Z,10.40
2018-01-03T02:59:24.592Z,10.43
2018-01-03T03:01:52.889Z,10.48
2018-01-03T03:04:21.172Z,10.42
2018-01-03T03:06:49.488Z,10.41
2018-01-03T03:09:17.752Z,10.46
2018-01-03T03:11:46.363Z,10.47
2018-01-03T03:14:14.642Z,10.42
2018-01-03T03:16:42.965Z,10.49
2018-01-03T03:19:11.228Z,10.42
2018-01-03T03:21:39.483Z,10.50
2018-01-03T03:24:07.787Z,10.52
2018-01-03T03:26:36.073Z,10.51
2018-01-03T03:29:04.381Z,10.61
2018-01-03T03:31:32.623Z,10.65
2018-01-03T03:34:00.934Z,10.57
2018-01-03T03:36:29.210Z,10.59
2018-01-03T03:38:57.506Z,10.66
2018-01-03T03:41:25.794Z,10.62
2018-01-03T03:43:54.224Z,10.68
2018-01-03T03:46:22.491Z,10.71
2018-01-03T03:48:50.767Z,10.69
2018-01-03T03:51:19.100Z,10.71
2018-01-03T03:53:47.396Z,10.75
2018-01-03T03:56:15.703Z,10.82
2018-01-03T03:58:43.983Z,10.78
2018-01-03T04:01:12.819Z,10.82
2018-01-03T04:03:41.097Z,10.87
2018-01-03T04:06:09.412Z,10.81
2018-01-03T04:08:37.681Z,10.88
2018-01-03T04:11:05.955Z,10.96
2018-01-03T04:13:34.237Z,10.96
2018-01-03T04:16:02.504Z,11.00
2018-01-03T04:18:30.860Z,11.05
2018-01-03T04:20:59.132Z,11.06
2018-01-03T04:23:27.422Z,11.06
2018-01-03T04:25:55.713Z,11.13
2018-01-03T04:28:24.049Z,11.14
2018-01-03T04:30:52.317Z,11.21
2018-01-03T04:33:20.623Z,11.14
2018-01-03T04:35:48.943Z,11.23
2018-01-03T04:38:17.212Z,11.22
2018-01-03T04:40:45.546Z,11.25
2018-01-03T04:43:13.815Z,11.31
2018-01-03T04:45:42.110Z,11.40
2018-01-03T04:48:10.383Z,11.43
2018-01-03T04:50:38.695Z,11.44
2018-01-03T04:53:06.956Z,11.45
2018-01-03T04:55:35.246Z,11.55
2018-01-03T04:58:04.265Z,11.59
2018-01-03T05:00:32.543Z,11.63
2018-01-03T05:03:00.872Z,11.61
2018-01-03T05:05:29.127Z,11.60
2018-01-03T05:07:57.421Z,11.67
2018-01-03T05:10:25.706Z,11.64
2018-01-03T05:12:53.994Z,11.72
2018-01-03T05:15:22.262Z,11.68
2018-01-03T05:17:50.680Z,11.72
2018-01-03T05:20:18.941Z,11.79
2018-01-03T05:22:47.245Z,11.82
2018-01-03T05:25:15.523Z,11.80
2018-01-03T05:27:43.799Z,11.83
2018-01-03T05:30:12.144Z,11.83
2018-01-03T05:32:40.403Z,11.83
2018-01-03T05:35:08.691Z,11.85
2018-01-03T05:37:36.955Z,11.82
2018-01-03T05:40:05.392Z,11.87
2018-01-03T05:42:33.719Z,11.92
2018-01-03T05:45:02.167Z,11.92
2018-01-03T05:47:30.519Z,11.97
2018-01-03T05:49:58.799Z,11.90
2018-01-03T05:52:27.111Z,11.98
2018-01-03T05:54:55.405Z,11.90
2018-01-03T05:57:23.712Z,11.91
2018-01-03T05:59:51.999Z,11.88
2018-01-03T06:02:20.302Z,11.96
2018-01-03T06:04:48.542Z,12.00
2018-01-03T06:07:16.891Z,11.99
2018-01-03T06:09:45.172Z,11.91
2018-01-03T06:12:13.515Z,11.43
2018-01-03T06:14:42.783Z,10.60
2018-01-03T06:17:11.072Z,10.04
2018-01-03T06:19:39.366Z,9.50
2018-01-03T06:22:08.203Z,9.33
2018-01-03T06:24:36.495Z,9.30
2018-01-03T06:27:05.492Z,9.29
2018-01-03T06:29:33.851Z,9.23
2018-01-03T06:32:03.127Z,9.29
2018-01-03T06:34:31.416Z,9.33
2018-01-03T06:36:59.635Z,9.38
2018-01-03T06:39:27.910Z,9.45
2018-01-03T06:41:56.159Z,9.53
2018-01-03T06:44:24.451Z,9.58
2018-01-03T06:46:52.700Z,9.61
2018-01-03T06:49:20.976Z,9.66
2018-01-03T06:51:49.273Z,9.69
2018-01-03T06:54:17.545Z,9.61
2018-01-03T06:56:45.891Z,9.65
2018-01-03T06:59:14.144Z,9.73
2018-01-03T07:01:42.444Z,9.74
2018-01-03T07:04:10.937Z,9.76
2018-01-03T07:06:39.307Z,9.66
2018-01-03T07:09:07.527Z,9.51
2018-01-03T07:11:35.907Z,9.54
2018-01-03T07:14:04.239Z,9.66
2018-01-03T07:16:32.599Z,9.48
2018-01-03T07:19:00.883Z,9.48
2018-01-03T07:21:29.148Z,9.50
2018-01-03T07:23:57.438Z,9.54
2018-01-03T07:26:25.694Z,9.56
2018-01-03T07:28:54.190Z,9.57
2018-01-03T07:31:22.428Z,9.54
2018-01-03T07:33:52.251Z,9.49
2018-01-03T07:36:20.955Z,9.48
2018-01-03T07:38:49.195Z,9.43
2018-01-03T07:41:17.490Z,9.47
2018-01-03T07:43:47.115Z,9.46
2018-01-03T07:46:15.416Z,9.44
2018-01-03T07:48:43.803Z,9.16
2018-01-03T07:51:12.091Z,9.41
2018-01-03T07:53:40.354Z,9.44
2018-01-03T07:56:09.568Z,9.45
2018-01-03T07:58:37.861Z,9.44
2018-01-03T08:01:06.164Z,9.34
2018-01-03T08:03:34.422Z,9.51
2018-01-03T08:06:02.686Z,9.51
2018-01-03T08:08:31.066Z,9.30
2018-01-03T08:10:59.367Z,9.47
2018-01-03T08:13:28.647Z,9.42
2018-01-03T08:15:56.887Z,9.41
2018-01-03T08:18:25.247Z,9.43
2018-01-03T08:20:53.542Z,9.47
2018-01-03T08:23:21.837Z,9.46
2018-01-03T08:25:50.176Z,9.48
2018-01-03T08:28:19.503Z,9.53
2018-01-03T08:30:47.809Z,9.41
2018-01-03T08:33:16.085Z,9.54
2018-01-03T08:35:44.845Z,9.51
2018-01-03T08:38:13.144Z,9.34
2018-01-03T08:40:41.758Z,9.45
2018-01-03T08:43:10.040Z,9.44
2018-01-03T08:45:38.455Z,9.26
2018-01-03T08:48:06.727Z,9.16
2018-01-03T08:50:35.031Z,9.06
2018-01-03T08:53:03.316Z,8.76
2018-01-03T08:55:31.631Z,8.73
2018-01-03T08:57:59.903Z,8.49
2018-01-03T09:00:29.023Z,8.30
2018-01-03T09:02:57.312Z,8.30
2018-01-03T09:05:25.571Z,8.32
2018-01-03T09:07:53.990Z,8.30
2018-01-03T09:10:22.250Z,8.25
2018-01-03T09:12:50.574Z,8.26
2018-01-03T09:15:19.701Z,8.26
2018-01-03T09:17:47.968Z,8.26
2018-01-03T09:20:16.277Z,8.31
2018-01-03T09:22:44.600Z,8.21
2018-01-03T09:25:12.923Z,8.29
2018-01-03T09:27:41.167Z,8.29
2018-01-03T09:30:09.479Z,8.31
2018-01-03T09:32:37.716Z,8.39
2018-01-03T09:35:06.103Z,8.14
2018-01-03T09:37:34.388Z,8.37
2018-01-03T09:40:02.708Z,8.39
2018-01-03T09:42:31.947Z,8.44
2018-01-03T09:45:00.220Z,8.44
2018-01-03T09:47:28.465Z,8.46
2018-01-03T09:49:56.741Z,8.49
2018-01-03T09:52:25.289Z,8.41
2018-01-03T09:54:53.567Z,8.39
2018-01-03T09:57:21.884Z,8.35
2018-01-03T09:59:50.159Z,8.38
2018-01-03T10:02:18.489Z,8.38
2018-01-03T10:04:46.758Z,8.41
2018-01-03T10:07:15.214Z,8.38
2018-01-03T10:09:43.479Z,8.42
2018-01-03T10:14:51.820Z,8.57
2018-01-03T10:17:20.143Z,8.59
2018-01-03T10:19:48.473Z,8.60
2018-01-03T10:22:16.800Z,8.60
2018-01-03T10:24:45.084Z,8.65
2018-01-03T10:27:13.364Z,8.72
2018-01-03T10:29:41.708Z,8.70
2018-01-03T10:32:09.989Z,8.71
2018-01-03T10:34:38.301Z,8.80
2018-01-03T10:37:07.491Z,8.82
2018-01-03T10:39:36.730Z,8.85
2018-01-03T10:42:05.563Z,8.80
2018-01-03T10:44:33.852Z,8.96
2018-01-03T10:47:02.174Z,8.94
2018-01-03T10:49:30.509Z,8.98
2018-01-03T10:51:58.767Z,9.03
2018-01-03T10:54:27.060Z,9.11
2018-01-03T10:56:56.015Z,9.19
2018-01-03T10:59:24.291Z,9.19
2018-01-03T11:01:52.590Z,9.20
2018-01-03T11:04:20.885Z,9.21
2018-01-03T11:06:49.204Z,9.18
2018-01-03T11:09:17.534Z,9.19
2018-01-03T11:11:45.820Z,9.19
2018-01-03T11:14:14.131Z,9.17
2018-01-03T11:16:42.415Z,9.15
2018-01-03T11:19:11.393Z,9.20
2018-01-03T11:21:39.642Z,9.13
2018-01-03T11:24:09.542Z,9.21
2018-01-03T11:26:37.790Z,9.20
2018-01-03T11:29:06.095Z,9.21
2018-01-03T11:31:34.371Z,9.22
2018-01-03T11:34:02.702Z,9.24
2018-01-03T11:36:30.948Z,9.18
2018-01-03T11:38:59.334Z,9.29
2018-01-03T11:41:27.646Z,9.33
2018-01-03T11:43:56.162Z,9.19
2018-01-03T11:46:24.562Z,9.33
2018-01-03T11:48:52.890Z,9.42
2018-01-03T11:51:21.171Z,9.36
2018-01-03T11:53:49.488Z,9.52
2018-01-03T11:56:17.770Z,9.58
2018-01-03T11:58:46.074Z,9.53
2018-01-03T12:01:15.138Z,9.78
2018-01-03T12:03:43.466Z,9.61
2018-01-03T12:06:11.851Z,9.61
2018-01-03T12:08:40.091Z,9.61
2018-01-03T12:11:08.406Z,9.52
2018-01-03T12:13:37.664Z,9.48
2018-01-03T12:16:05.967Z,9.47
2018-01-03T12:18:34.306Z,9.47
2018-01-03T12:21:02.615Z,9.47
2018-01-03T12:23:30.925Z,9.48
2018-01-03T12:26:03.221Z,9.43
2018-01-03T12:28:32.595Z,9.41
2018-01-03T12:31:01.190Z,9.53
2018-01-03T12:33:29.471Z,9.49
2018-01-03T12:35:57.751Z,9.49
2018-01-03T12:38:26.048Z,9.39
2018-01-03T12:40:54.319Z,9.30
2018-01-03T12:43:22.626Z,9.22
2018-01-03T12:45:50.881Z,9.29
2018-01-03T12:48:19.133Z,9.33
2018-01-03T12:50:47.447Z,9.33
2018-01-03T12:53:15.704Z,9.26
2018-01-03T12:55:43.991Z,9.34
2018-01-03T12:58:12.319Z,9.36
2018-01-03T13:00:40.806Z,9.37
2018-01-03T13:03:09.046Z,9.46
2018-01-03T13:05:37.343Z,9.61
2018-01-03T13:08:05.583Z,9.52
2018-01-03T13:10:34.827Z,9.57
2018-01-03T13:13:03.208Z,9.59
2018-01-03T13:15:31.474Z,9.59
2018-01-03T13:17:59.767Z,9.80
2018-01-03T13:20:28.029Z,9.77
2018-01-03T13:22:56.543Z,9.81
2018-01-03T13:25:24.806Z,9.77
2018-01-03T13:27:53.124Z,9.65
2018-01-03T13:30:21.399Z,9.58
2018-01-03T13:32:49.703Z,9.64
2018-01-03T13:35:17.981Z,9.64
2018-01-03T13:37:46.276Z,9.65
2018-01-03T13:40:14.611Z,9.68
2018-01-03T13:42:42.893Z,9.55
2018-01-03T13:45:11.374Z,9.55
2018-01-03T13:47:39.855Z,9.48
2018-01-03T13:50:08.212Z,9.35
2018-01-03T13:52:36.463Z,9.34
2018-01-03T13:55:05.620Z,9.25
2018-01-03T13:57:33.955Z,9.26
2018-01-03T14:00:02.261Z,8.98
2018-01-03T14:02:31.331Z,8.78
2018-01-03T14:04:59.655Z,8.61
2018-01-03T14:07:27.913Z,8.55
2018-01-03T14:09:56.296Z,8.48
2018-01-03T14:12:24.608Z,8.40
2018-01-03T14:14:52.879Z,8.36
2018-01-03T14:17:21.130Z,8.39
2018-01-03T14:19:49.651Z,8.43
2018-01-03T14:22:17.945Z,8.46
2018-01-03T14:24:46.235Z,8.44
2018-01-03T14:27:14.537Z,8.48
2018-01-03T14:29:42.800Z,8.37
2018-01-03T14:32:11.128Z,8.51
2018-01-03T14:34:40.327Z,8.55
2018-01-03T14:37:08.617Z,8.54
2018-01-03T14:39:36.879Z,8.57
2018-01-03T14:42:05.180Z,8.56
2018-01-03T14:44:33.434Z,8.49
2018-01-03T14:47:01.743Z,8.51
2018-01-03T14:49:30.105Z,8.46
2018-01-03T14:51:58.368Z,8.55
2018-01-03T14:54:26.660Z,8.54
2018-01-03T14:56:54.899Z,8.56
2018-01-03T14:59:23.244Z,8.46
2018-01-03T15:01:51.516Z,8.63
2018-01-03T15:04:19.808Z,8.67
2018-01-03T15:06:48.060Z,8.65
2018-01-03T15:09:17.262Z,8.55
2018-01-03T15:11:45.485Z,8.59
2018-01-03T15:14:13.762Z,8.71
2018-01-03T15:16:42.159Z,8.62
2018-01-03T15:19:10.475Z,8.69
2018-01-03T15:21:39.012Z,8.73
2018-01-03T15:24:07.304Z,8.77
2018-01-03T15:26:35.654Z,8.80
2018-01-03T15:29:03.885Z,8.78
2018-01-03T15:31:32.157Z,8.72
2018-01-03T15:34:00.404Z,8.77
2018-01-03T15:36:28.691Z,8.77
2018-01-03T15:38:57.007Z,8.76
2018-01-03T15:41:25.326Z,8.78
2018-01-03T15:43:53.605Z,8.77
2018-01-03T15:46:21.910Z,8.81
2018-01-03T15:48:50.145Z,8.84
2018-01-03T15:51:18.422Z,8.88
2018-01-03T15:53:46.722Z,8.85
2018-01-03T15:56:14.982Z,8.85
2018-01-03T15:58:43.287Z,8.94
2018-01-03T16:01:11.619Z,8.90
2018-01-03T16:03:39.903Z,8.91
2018-01-03T16:06:08.167Z,8.92
2018-01-03T16:08:36.496Z,8.94
2018-01-03T16:11:04.769Z,8.96
2018-01-03T16:13:33.058Z,8.95
2018-01-03T16:16:01.383Z,8.98
2018-01-03T16:18:29.685Z,9.08
2018-01-03T16:20:57.974Z,9.12
2018-01-03T16:23:26.291Z,9.16
2018-01-03T16:25:54.619Z,9.20
2018-01-03T16:28:22.889Z,9.20
2018-01-03T16:30:51.174Z,9.21
2018-01-03T16:33:19.445Z,9.25
2018-01-03T16:35:47.731Z,9.23
2018-01-03T16:38:15.982Z,9.18
2018-01-03T16:40:44.278Z,9.07
2018-01-03T16:43:12.567Z,8.97
2018-01-03T16:45:40.830Z,8.88
2018-01-03T16:48:09.356Z,8.87
2018-01-03T16:50:37.601Z,8.87
2018-01-03T16:53:05.949Z,8.82
2018-01-03T16:55:34.500Z,8.76
2018-01-03T16:58:04.632Z,8.83
2018-01-03T17:00:32.927Z,8.85
2018-01-03T17:03:01.222Z,8.78
2018-01-03T17:05:29.519Z,8.75
2018-01-03T17:07:57.833Z,8.77
2018-01-03T17:10:26.146Z,8.73
2018-01-03T17:12:54.710Z,8.78
2018-01-03T17:15:23.003Z,8.72
2018-01-03T17:17:51.278Z,8.71
2018-01-03T17:20:19.633Z,8.67
2018-01-03T17:22:47.860Z,8.65
2018-01-03T17:25:16.147Z,8.60
2018-01-03T17:27:44.418Z,8.61
2018-01-03T17:30:14.114Z,8.58
2018-01-03T17:32:42.371Z,8.59
2018-01-03T17:35:10.650Z,8.45
2018-01-03T17:37:38.930Z,8.51
2018-01-03T17:40:07.229Z,8.51
2018-01-03T17:42:35.482Z,8.56
2018-01-03T17:45:03.783Z,8.57
2018-01-03T17:47:32.071Z,8.53
2018-01-03T17:50:00.404Z,8.57
2018-01-03T17:52:28.683Z,8.64
2018-01-03T17:54:56.944Z,8.68
2018-01-03T17:57:25.223Z,8.72
2018-01-03T17:59:53.462Z,8.77
2018-01-03T18:02:21.739Z,8.76
2018-01-03T18:04:50.020Z,8.83
2018-01-03T18:07:18.275Z,8.91
2018-01-03T18:09:46.547Z,8.94
2018-01-03T18:12:14.827Z,8.96
2018-01-03T18:14:43.083Z,8.97
2018-01-03T18:17:11.364Z,9.03
2018-01-03T18:19:39.635Z,9.02
2018-01-03T18:22:07.933Z,9.07
2018-01-03T18:24:36.195Z,9.13
2018-01-03T18:27:04.549Z,9.06
2018-01-03T18:29:32.765Z,9.03
2018-01-03T18:32:01.435Z,9.01
2018-01-03T18:34:29.736Z,9.01
2018-01-03T18:36:57.991Z,9.12
2018-01-03T18:39:26.290Z,9.14
2018-01-03T18:41:54.543Z,9.08
2018-01-03T18:44:22.818Z,9.09
2018-01-03T18:46:51.074Z,9.07
2018-01-03T18:49:19.363Z,9.11
2018-01-03T18:51:47.645Z,9.06
2018-01-03T18:54:15.947Z,8.93
2018-01-03T18:56:44.207Z,8.93
2018-01-03T18:59:12.516Z,8.99
2018-01-03T19:01:40.766Z,8.96
2018-01-03T19:04:09.058Z,8.96
2018-01-03T19:06:37.355Z,9.01
2018-01-03T19:09:05.655Z,9.02
2018-01-03T19:11:33.932Z,9.04
2018-01-03T19:14:02.195Z,9.04
2018-01-03T19:16:30.523Z,9.03
2018-01-03T19:18:58.761Z,9.12
2018-01-03T19:21:27.057Z,9.12
2018-01-03T19:23:55.335Z,9.13
2018-01-03T19:26:23.652Z,9.18
2018-01-03T19:28:51.895Z,9.09
2018-01-03T19:31:20.175Z,9.16
2018-01-03T19:33:48.467Z,9.15
2018-01-03T19:36:16.746Z,9.17
2018-01-03T19:38:45.073Z,9.11
2018-01-03T19:41:13.320Z,9.12
2018-01-03T19:43:41.612Z,9.13
2018-01-03T19:46:09.900Z,9.07
2018-01-03T19:48:38.183Z,9.10
2018-01-03T19:51:06.434Z,9.08
2018-01-03T19:53:34.735Z,9.06
2018-01-03T19:56:03.019Z,9.09
2018-01-03T19:58:31.326Z,9.14
2018-01-03T20:00:59.612Z,9.10
2018-01-03T20:03:27.867Z,9.12
2018-01-03T20:05:56.156Z,9.12
2018-01-03T20:08:24.454Z,9.07
2018-01-03T20:10:52.780Z,9.13
2018-01-03T20:13:21.042Z,9.12
2018-01-03T20:15:49.342Z,9.10
2018-01-03T20:18:17.611Z,9.13
2018-01-03T20:20:45.892Z,9.14
2018-01-03T20:23:14.172Z,9.07
2018-01-03T20:25:42.457Z,9.06
2018-01-03T20:28:10.714Z,9.11
2018-01-03T20:30:38.993Z,9.02
2018-01-03T20:33:07.259Z,9.05
2018-01-03T20:35:35.550Z,9.00
2018-01-03T20:38:03.851Z,8.97
2018-01-03T20:40:32.096Z,8.91
2018-01-03T20:43:00.421Z,8.95
2018-01-03T20:45:28.695Z,8.92
2018-01-03T20:47:56.967Z,9.00
2018-01-03T20:50:25.239Z,8.92
2018-01-03T20:52:53.543Z,8.84
2018-01-03T20:55:21.824Z,8.89
2018-01-03T20:57:50.111Z,8.84
2018-01-03T21:00:18.387Z,8.82
2018-01-03T21:02:46.699Z,8.75
2018-01-03T21:05:20.813Z,8.77
2018-01-03T21:07:49.092Z,8.73
2018-01-03T21:10:17.353Z,8.71
2018-01-03T21:12:45.649Z,8.74
2018-01-03T21:15:14.418Z,8.66
2018-01-03T21:17:42.706Z,8.66
2018-01-03T21:20:10.997Z,8.68
2018-01-03T21:22:39.278Z,8.64
2018-01-03T21:25:07.609Z,8.69
2018-01-03T21:27:35.910Z,8.70
2018-01-03T21:30:04.179Z,8.66
2018-01-03T21:32:32.451Z,8.65
2018-01-03T21:35:00.750Z,8.44
2018-01-03T21:37:29.023Z,8.40
2018-01-03T21:39:57.316Z,8.35
2018-01-03T21:42:25.661Z,8.32
2018-01-03T21:44:53.926Z,8.15
2018-01-03T21:47:22.181Z,8.08
2018-01-03T21:49:50.493Z,8.03
2018-01-03T21:52:18.768Z,8.04
2018-01-03T21:54:47.080Z,7.97
2018-01-03T21:57:15.333Z,8.01
2018-01-03T21:59:43.604Z,7.99
2018-01-03T22:02:12.068Z,8.06
2018-01-03T22:04:40.282Z,8.10
2018-01-03T22:07:09.364Z,8.12
2018-01-03T22:09:40.085Z,8.08
2018-01-03T22:12:08.363Z,8.12
2018-01-03T22:14:36.652Z,8.06
2018-01-03T22:17:04.943Z,8.09
2018-01-03T22:19:33.190Z,8.20
2018-01-03T22:22:01.516Z,8.22
2018-01-03T22:24:30.469Z,8.19
2018-01-03T22:26:58.724Z,8.23
2018-01-03T22:29:27.045Z,8.31
2018-01-03T22:31:55.332Z,8.34
2018-01-03T22:34:23.655Z,8.28
2018-01-03T22:36:51.930Z,8.39
2018-01-03T22:39:20.224Z,8.35
2018-01-03T22:41:48.506Z,8.39
2018-01-03T22:44:16.785Z,8.38
2018-01-03T22:46:45.044Z,8.36
2018-01-03T22:49:13.384Z,8.37
2018-01-03T22:51:41.625Z,8.41
2018-01-03T22:54:09.900Z,8.38
2018-01-03T22:56:38.211Z,8.42
2018-01-03T22:59:06.475Z,8.39
2018-01-03T23:01:34.793Z,8.39
2018-01-03T23:04:03.687Z,8.33
2018-01-03T23:06:31.976Z,8.33
2018-01-03T23:09:00.248Z,8.35
2018-01-03T23:11:28.545Z,8.33
2018-01-03T23:13:56.810Z,8.23
2018-01-03T23:16:25.102Z,8.10
2018-01-03T23:18:53.384Z,8.21
2018-01-03T23:21:21.721Z,8.16
2018-01-03T23:23:49.990Z,8.25
2018-01-03T23:26:18.372Z,8.22
2018-01-03T23:28:46.601Z,8.20
2018-01-03T23:31:14.870Z,8.22
2018-01-03T23:33:43.163Z,8.20
2018-01-03T23:36:11.439Z,8.13
2018-01-03T23:38:39.753Z,8.19
2018-01-03T23:41:08.050Z,8.21
2018-01-03T23:43:36.360Z,8.23
2018-01-03T23:46:05.196Z,8.19
2018-01-03T23:48:33.499Z,8.19
2018-01-03T23:51:01.775Z,8.18
2018-01-03T23:53:30.087Z,8.23
2018-01-03T23:55:58.404Z,8.28
2018-01-03T23:58:26.651Z,8.28
